Time;durP1;ratioP1;P1;durP2;ratioP2;P2;SDS_P1;SDS_P2;PMS_P1;PMS_P2;Temp;Humidity;BMP_temperature;BMP_pressure;BME280_temperature;BME280_humidity;BME280_pressure;Samples;Min_cycle;Max_cycle;Signal;HPM_P1;HPM_P2
2023/03/10 00:00:04;;;;;;;0.40;0.40;;;12.00;99.90;;;;;;5051766;28;20202;-56
2023/03/10 00:02:33;;;;;;;0.50;0.50;;;11.90;99.90;;;;;;5051757;28;20607;-55
2023/03/10 00:05:01;;;;;;;0.60;0.60;;;11.80;99.90;;;;;;5051131;28;20354;-55
2023/03/10 00:07:28;;;;;;;0.60;0.60;;;11.80;99.90;;;;;;5052087;28;20216;-55
2023/03/10 00:09:55;;;;;;;0.43;0.43;;;11.80;99.90;;;;;;5053090;28;20208;-55
2023/03/10 00:12:24;;;;;;;0.60;0.57;;;11.70;99.90;;;;;;5050629;28;20208;-56
2023/03/10 00:14:53;;;;;;;0.75;0.75;;;11.70;99.90;;;;;;5049146;28;20342;-55
2023/03/10 00:17:19;;;;;;;0.47;0.47;;;11.60;99.90;;;;;;5049372;28;20223;-55
2023/03/10 00:19:46;;;;;;;0.63;0.63;;;11.60;99.90;;;;;;5049355;28;20200;-55
2023/03/10 00:22:13;;;;;;;0.67;0.67;;;11.50;99.90;;;;;;5049111;28;20228;-56
2023/03/10 00:24:40;;;;;;;0.80;0.80;;;11.50;99.90;;;;;;5048956;28;20233;-56
2023/03/10 00:27:06;;;;;;;0.47;0.47;;;11.60;99.90;;;;;;5049746;28;20208;-55
2023/03/10 00:29:33;;;;;;;0.73;0.73;;;11.60;99.90;;;;;;5049550;28;20208;-56
2023/03/10 00:32:02;;;;;;;0.70;0.70;;;11.60;99.90;;;;;;5049282;28;20504;-55
2023/03/10 00:34:28;;;;;;;0.80;0.80;;;11.60;99.90;;;;;;5048791;28;20239;-55
2023/03/10 00:36:55;;;;;;;0.80;0.80;;;11.60;99.90;;;;;;5049994;28;20233;-55
2023/03/10 00:39:22;;;;;;;0.77;0.77;;;11.70;99.90;;;;;;5049756;28;20663;-56
2023/03/10 00:41:49;;;;;;;0.70;0.70;;;11.70;99.90;;;;;;5047402;28;20303;-56
2023/03/10 00:44:16;;;;;;;0.70;0.70;;;11.90;99.90;;;;;;5048956;28;20239;-56
2023/03/10 00:46:43;;;;;;;0.82;0.82;;;12.00;99.90;;;;;;5050996;28;20212;-55
2023/03/10 00:49:15;;;;;;;0.57;0.57;;;12.10;99.90;;;;;;5049996;28;20659;-56
2023/03/10 00:51:42;;;;;;;0.80;0.80;;;12.20;99.90;;;;;;5049728;28;20211;-57
2023/03/10 00:54:10;;;;;;;0.80;0.80;;;12.30;99.90;;;;;;5049453;28;20516;-55
2023/03/10 00:56:37;;;;;;;0.73;0.70;;;12.30;99.90;;;;;;5051226;28;20298;-55
2023/03/10 00:59:05;;;;;;;0.63;0.63;;;12.40;99.90;;;;;;5050915;28;20200;-56
2023/03/10 01:01:35;;;;;;;0.67;0.60;;;12.40;99.90;;;;;;5050793;28;20223;-56
2023/03/10 01:04:04;;;;;;;0.70;0.70;;;12.40;99.90;;;;;;5050616;28;20247;-55
2023/03/10 01:06:32;;;;;;;0.70;0.70;;;12.40;99.90;;;;;;5057036;28;20292;-56
2023/03/10 01:08:59;;;;;;;0.60;0.60;;;12.40;99.90;;;;;;5052451;28;20200;-55
2023/03/10 01:11:27;;;;;;;0.70;0.70;;;12.50;99.90;;;;;;5048537;28;20211;-56
2023/03/10 01:13:57;;;;;;;0.50;0.50;;;12.50;99.90;;;;;;5048694;28;20232;-56
2023/03/10 01:16:31;;;;;;;0.30;0.30;;;12.50;99.90;;;;;;5049214;28;20204;-55
2023/03/10 01:18:59;;;;;;;0.50;0.50;;;12.50;99.90;;;;;;5049786;28;20276;-56
2023/03/10 01:21:27;;;;;;;0.17;0.17;;;12.50;99.90;;;;;;5048834;28;20487;-56
2023/03/10 01:23:56;;;;;;;0.32;0.32;;;12.50;99.90;;;;;;5047728;28;20228;-56
2023/03/10 01:26:23;;;;;;;0.40;0.40;;;12.60;99.90;;;;;;5048556;28;20294;-55
2023/03/10 01:28:50;;;;;;;0.40;0.40;;;12.60;99.90;;;;;;5048353;28;20208;-55
2023/03/10 01:31:17;;;;;;;0.40;0.40;;;12.60;99.90;;;;;;5048235;28;20303;-55
2023/03/10 01:33:56;;;;;;;0.47;0.47;;;12.60;99.90;;;;;;5048190;28;20223;-55
2023/03/10 01:36:26;;;;;;;0.33;0.33;;;12.60;99.90;;;;;;5048033;28;20287;-56
2023/03/10 01:38:59;;;;;;;0.38;0.38;;;12.60;99.90;;;;;;5046102;28;20209;-56
2023/03/10 01:41:26;;;;;;;0.30;0.30;;;12.60;99.90;;;;;;5048988;28;20228;-56
2023/03/10 01:43:54;;;;;;;0.30;0.30;;;12.60;99.90;;;;;;5048597;28;20226;-56
2023/03/10 01:46:46;;;;;;;0.50;0.50;;;12.60;99.90;;;;;;5049971;28;20307;-56
2023/03/10 01:49:29;;;;;;;0.37;0.37;;;12.60;99.90;;;;;;5050274;28;20290;-57
2023/03/10 01:52:00;;;;;;;0.30;0.30;;;12.60;99.90;;;;;;5049766;28;20208;-55
2023/03/10 01:54:33;;;;;;;0.65;0.60;;;12.60;99.90;;;;;;5049315;28;20224;-56
2023/03/10 01:57:00;;;;;;;0.40;0.40;;;12.50;99.90;;;;;;5050071;28;20204;-55
2023/03/10 01:59:27;;;;;;;0.40;0.40;;;12.50;99.90;;;;;;5050016;28;20212;-56
2023/03/10 02:01:56;;;;;;;0.30;0.30;;;12.50;99.90;;;;;;5049323;28;20219;-55
2023/03/10 02:04:31;;;;;;;0.37;0.37;;;12.50;99.90;;;;;;5049043;28;20228;-56
2023/03/10 02:06:59;;;;;;;0.30;0.30;;;12.50;99.90;;;;;;5049807;28;20194;-56
2023/03/10 02:09:26;;;;;;;0.37;0.37;;;12.50;99.90;;;;;;5049766;28;20210;-55
2023/03/10 02:11:56;;;;;;;0.43;0.43;;;12.50;99.90;;;;;;5049526;28;20211;-56
2023/03/10 02:14:23;;;;;;;0.47;0.47;;;12.40;99.90;;;;;;5051225;28;20312;-56
2023/03/10 02:16:50;;;;;;;0.30;0.30;;;12.40;99.90;;;;;;5054038;28;20245;-55
2023/03/10 02:19:28;;;;;;;0.40;0.40;;;12.40;99.90;;;;;;5054991;28;20211;-57
2023/03/10 02:22:02;;;;;;;0.40;0.40;;;12.40;99.90;;;;;;5044343;28;20741;-56
2023/03/10 02:24:35;;;;;;;0.32;0.32;;;12.40;99.90;;;;;;5048738;28;20230;-56
2023/03/10 02:27:12;;;;;;;0.30;0.30;;;12.40;99.90;;;;;;5049897;28;20546;-56
2023/03/10 02:29:44;;;;;;;0.40;0.40;;;12.40;99.90;;;;;;5049688;28;20218;-56
2023/03/10 02:32:12;;;;;;;0.40;0.40;;;12.40;99.90;;;;;;5048991;28;20730;-56
2023/03/10 02:34:39;;;;;;;0.30;0.30;;;12.40;99.90;;;;;;5049129;28;20228;-56
2023/03/10 02:37:05;;;;;;;0.50;0.50;;;12.40;99.90;;;;;;5049686;28;20210;-56
2023/03/10 02:39:32;;;;;;;0.53;0.53;;;12.40;99.90;;;;;;5049283;28;20200;-57
2023/03/10 02:41:59;;;;;;;0.30;0.30;;;12.40;99.90;;;;;;5049308;28;20220;-56
2023/03/10 02:44:27;;;;;;;0.43;0.43;;;12.40;99.90;;;;;;5048839;28;20223;-56
2023/03/10 02:46:54;;;;;;;0.43;0.43;;;12.40;99.90;;;;;;5049406;28;20204;-56
2023/03/10 02:49:24;;;;;;;0.20;0.20;;;12.40;99.90;;;;;;5049456;28;20588;-55
2023/03/10 02:51:51;;;;;;;0.20;0.20;;;12.50;99.90;;;;;;5049018;28;20184;-56
2023/03/10 02:54:18;;;;;;;0.55;0.55;;;12.50;99.90;;;;;;5048645;28;20718;-56
2023/03/10 02:56:45;;;;;;;0.30;0.30;;;12.50;99.90;;;;;;5049579;28;20204;-55
2023/03/10 02:59:12;;;;;;;0.30;0.30;;;12.40;99.90;;;;;;5049295;28;20204;-55
2023/03/10 03:01:41;;;;;;;0.40;0.40;;;12.40;99.90;;;;;;5049543;28;20211;-56
2023/03/10 03:04:07;;;;;;;0.32;0.32;;;12.40;99.90;;;;;;5048986;28;20243;-55
2023/03/10 03:06:34;;;;;;;0.37;0.37;;;12.40;99.90;;;;;;5049749;28;20582;-56
2023/03/10 03:09:01;;;;;;;0.20;0.20;;;12.30;99.90;;;;;;5050544;28;20298;-57
2023/03/10 03:11:28;;;;;;;0.23;0.23;;;12.20;99.90;;;;;;5049847;28;20212;-56
2023/03/10 03:13:55;;;;;;;0.52;0.50;;;12.20;99.90;;;;;;5049657;28;20226;-57
2023/03/10 03:16:22;;;;;;;0.30;0.30;;;12.10;99.90;;;;;;5052070;28;20204;-57
2023/03/10 03:18:50;;;;;;;0.40;0.40;;;12.00;99.90;;;;;;5056052;28;20204;-56
2023/03/10 03:21:17;;;;;;;0.40;0.40;;;12.00;99.90;;;;;;5054036;28;20212;-57
2023/03/10 03:23:45;;;;;;;0.50;0.50;;;12.00;99.90;;;;;;5053097;28;20234;-55
2023/03/10 03:26:17;;;;;;;0.40;0.40;;;12.00;99.90;;;;;;5053268;28;20208;-55
2023/03/10 03:28:44;;;;;;;0.30;0.30;;;12.00;99.90;;;;;;5053765;28;20214;-55
2023/03/10 03:31:16;;;;;;;0.50;0.50;;;11.90;99.90;;;;;;5053067;28;20261;-56
2023/03/10 03:33:44;;;;;;;0.37;0.37;;;11.90;99.90;;;;;;5055113;28;20314;-56
2023/03/10 03:36:12;;;;;;;0.40;0.40;;;11.90;99.90;;;;;;5072112;28;20200;-57
2023/03/10 03:38:40;;;;;;;0.30;0.30;;;11.80;99.90;;;;;;5074541;28;20271;-57
2023/03/10 03:41:07;;;;;;;0.50;0.50;;;11.80;99.90;;;;;;5074443;28;20277;-57
2023/03/10 03:43:34;;;;;;;0.65;0.65;;;11.80;99.90;;;;;;5074781;28;20294;-56
2023/03/10 03:46:01;;;;;;;0.50;0.50;;;11.80;99.90;;;;;;5071877;28;20271;-56
2023/03/10 03:48:28;;;;;;;0.60;0.60;;;11.80;99.90;;;;;;5052258;28;20590;-57
2023/03/10 03:50:55;;;;;;;0.40;0.40;;;11.80;99.90;;;;;;5052656;28;20287;-56
2023/03/10 03:53:23;;;;;;;0.43;0.43;;;11.80;99.90;;;;;;5051929;28;20291;-56
2023/03/10 03:55:50;;;;;;;0.37;0.37;;;11.90;99.90;;;;;;5051279;28;20215;-56
2023/03/10 03:58:18;;;;;;;0.40;0.40;;;11.90;99.90;;;;;;5052400;28;20623;-56
2023/03/10 04:00:44;;;;;;;0.73;0.73;;;11.90;99.90;;;;;;5052177;28;20679;-58
2023/03/10 04:03:11;;;;;;;1.30;1.00;;;11.90;99.90;;;;;;5051877;28;20721;-57
2023/03/10 04:05:38;;;;;;;0.60;0.60;;;11.80;99.90;;;;;;5051732;28;20208;-57
2023/03/10 04:08:06;;;;;;;0.50;0.50;;;11.90;99.90;;;;;;5051942;28;20306;-57
2023/03/10 04:10:34;;;;;;;0.70;0.70;;;11.80;99.90;;;;;;5054833;28;20211;-56
2023/03/10 04:13:01;;;;;;;0.53;0.53;;;11.70;99.90;;;;;;5058674;28;20245;-56
2023/03/10 04:15:28;;;;;;;0.40;0.40;;;11.70;99.90;;;;;;5055921;28;20228;-57
2023/03/10 04:17:56;;;;;;;0.57;0.57;;;11.80;99.90;;;;;;5052586;28;20219;-56
2023/03/10 04:20:23;;;;;;;0.57;0.57;;;11.70;99.90;;;;;;5051330;28;20234;-62
2023/03/10 04:22:50;;;;;;;0.80;0.80;;;11.70;99.90;;;;;;5051359;28;20223;-63
2023/03/10 04:25:18;;;;;;;0.70;0.70;;;11.70;99.90;;;;;;5051138;28;20232;-62
2023/03/10 04:27:46;;;;;;;0.80;0.80;;;11.80;99.90;;;;;;5050779;28;20200;-62
2023/03/10 04:30:14;;;;;;;0.47;0.47;;;11.80;99.90;;;;;;5054469;28;20208;-61
2023/03/10 04:32:41;;;;;;;0.50;0.50;;;11.80;99.90;;;;;;5051798;28;20203;-63
2023/03/10 04:35:11;;;;;;;0.40;0.40;;;11.80;99.90;;;;;;5050421;28;20942;-62
2023/03/10 04:37:38;;;;;;;0.60;0.60;;;11.80;99.90;;;;;;5051621;28;20291;-62
2023/03/10 04:40:08;;;;;;;0.70;0.70;;;11.80;99.90;;;;;;5050959;28;20208;-63
2023/03/10 04:42:35;;;;;;;0.47;0.47;;;11.80;99.90;;;;;;5051254;28;20254;-63
2023/03/10 04:45:04;;;;;;;0.60;0.60;;;11.80;99.90;;;;;;5051084;28;20230;-63
2023/03/10 04:47:30;;;;;;;0.70;0.70;;;11.90;99.90;;;;;;5050960;28;20838;-63
2023/03/10 04:49:57;;;;;;;0.65;0.65;;;11.80;99.90;;;;;;5050813;28;20214;-62
2023/03/10 04:52:24;;;;;;;0.60;0.60;;;11.80;99.90;;;;;;5050793;28;20206;-62
2023/03/10 04:54:51;;;;;;;0.83;0.63;;;11.80;99.90;;;;;;5050407;28;20227;-63
2023/03/10 04:57:18;;;;;;;0.60;0.60;;;11.90;99.90;;;;;;5051124;28;20574;-62
2023/03/10 04:59:45;;;;;;;0.60;0.60;;;11.80;99.90;;;;;;5050931;28;20204;-62
2023/03/10 05:02:13;;;;;;;0.57;0.57;;;11.80;99.90;;;;;;5050655;28;20323;-63
2023/03/10 05:04:40;;;;;;;0.50;0.50;;;11.80;99.90;;;;;;5050349;28;20551;-61
2023/03/10 05:07:07;;;;;;;0.70;0.70;;;11.80;99.90;;;;;;5050746;28;20250;-61
2023/03/10 05:09:35;;;;;;;0.70;0.70;;;11.80;99.90;;;;;;5050416;28;20591;-62
2023/03/10 05:12:02;;;;;;;0.50;0.50;;;11.80;99.90;;;;;;5050873;28;20226;-63
2023/03/10 05:14:29;;;;;;;0.80;0.80;;;11.80;99.90;;;;;;5050383;28;20226;-62
2023/03/10 05:16:56;;;;;;;0.57;0.57;;;11.90;99.90;;;;;;5052217;28;20208;-63
2023/03/10 05:19:24;;;;;;;0.40;0.40;;;11.90;99.90;;;;;;5051698;28;20310;-62
2023/03/10 05:21:52;;;;;;;0.40;0.40;;;11.90;99.90;;;;;;5050956;28;20295;-63
2023/03/10 05:24:19;;;;;;;0.70;0.70;;;11.90;99.90;;;;;;5050274;28;20230;-62
2023/03/10 05:26:46;;;;;;;0.40;0.40;;;11.80;99.90;;;;;;5050677;28;20223;-61
2023/03/10 05:29:13;;;;;;;0.20;0.20;;;11.80;99.90;;;;;;5050758;28;20225;-61
2023/03/10 05:31:39;;;;;;;0.70;0.70;;;11.80;99.90;;;;;;5052869;28;20204;-63
2023/03/10 05:34:06;;;;;;;0.50;0.50;;;11.70;99.90;;;;;;5057079;28;20696;-65
2023/03/10 05:36:34;;;;;;;0.30;0.30;;;11.70;99.90;;;;;;5052711;28;20208;-62
2023/03/10 05:39:01;;;;;;;0.60;0.60;;;11.70;99.90;;;;;;5049929;28;20627;-61
2023/03/10 05:41:28;;;;;;;0.60;0.60;;;11.60;99.90;;;;;;5046462;28;20210;-62
2023/03/10 05:43:55;;;;;;;0.37;0.37;;;11.60;99.90;;;;;;5049824;28;20220;-61
2023/03/10 05:46:22;;;;;;;0.20;0.20;;;11.60;99.90;;;;;;5050783;28;20208;-62
2023/03/10 05:48:49;;;;;;;0.30;0.30;;;11.50;99.90;;;;;;5050898;28;20200;-63
2023/03/10 05:51:16;;;;;;;0.30;0.30;;;11.50;99.90;;;;;;5050560;28;20211;-62
2023/03/10 05:53:44;;;;;;;0.23;0.23;;;11.40;99.90;;;;;;5050322;28;20258;-62
2023/03/10 05:56:13;;;;;;;0.30;0.30;;;11.30;99.90;;;;;;5040961;28;20200;-63
2023/03/10 05:58:41;;;;;;;0.30;0.30;;;11.30;99.90;;;;;;5050551;28;20682;-62
2023/03/10 06:01:08;;;;;;;0.33;0.33;;;11.30;99.90;;;;;;5050854;28;20208;-62
2023/03/10 06:03:36;;;;;;;0.40;0.40;;;11.30;99.90;;;;;;5050653;28;20238;-62
2023/03/10 06:06:05;;;;;;;0.30;0.30;;;11.30;99.90;;;;;;5050143;28;20200;-63
2023/03/10 06:08:33;;;;;;;0.40;0.40;;;11.30;99.90;;;;;;5050592;28;20294;-62
2023/03/10 06:11:01;;;;;;;0.40;0.40;;;11.30;99.90;;;;;;5049221;28;20921;-63
2023/03/10 06:13:28;;;;;;;0.60;0.60;;;11.20;99.90;;;;;;5043601;28;20238;-62
2023/03/10 06:15:56;;;;;;;0.50;0.50;;;11.20;99.90;;;;;;5049791;28;20200;-62
2023/03/10 06:18:23;;;;;;;0.40;0.40;;;11.20;99.90;;;;;;5031419;28;20598;-62
2023/03/10 06:20:51;;;;;;;0.30;0.30;;;11.20;99.90;;;;;;5031020;28;20568;-61
2023/03/10 06:23:18;;;;;;;0.40;0.40;;;11.30;99.90;;;;;;5031370;28;20216;-62
2023/03/10 06:25:45;;;;;;;0.50;0.50;;;11.30;99.90;;;;;;5031092;28;20199;-62
2023/03/10 06:28:13;;;;;;;0.30;0.30;;;11.40;99.90;;;;;;5030446;28;20205;-62
2023/03/10 06:30:40;;;;;;;0.40;0.40;;;11.40;99.90;;;;;;5034366;28;20257;-63
2023/03/10 06:33:07;;;;;;;0.40;0.40;;;11.40;99.90;;;;;;5050824;28;20200;-61
2023/03/10 06:35:34;;;;;;;0.70;0.70;;;11.50;99.90;;;;;;5050666;28;20231;-61
2023/03/10 06:38:02;;;;;;;0.53;0.53;;;11.50;99.90;;;;;;5049650;28;20193;-61
2023/03/10 06:40:29;;;;;;;0.87;0.60;;;11.50;99.90;;;;;;5055677;28;20647;-63
2023/03/10 06:42:56;;;;;;;0.50;0.50;;;11.50;99.90;;;;;;5050664;28;20735;-62
2023/03/10 06:45:24;;;;;;;0.40;0.40;;;11.40;99.90;;;;;;5049366;28;20233;-62
2023/03/10 06:47:51;;;;;;;0.70;0.70;;;11.50;99.90;;;;;;5048409;28;20248;-62
2023/03/10 06:50:18;;;;;;;0.40;0.40;;;11.50;99.90;;;;;;5049245;28;20192;-61
2023/03/10 06:52:45;;;;;;;0.70;0.70;;;11.50;99.90;;;;;;5050339;28;20211;-62
2023/03/10 06:55:14;;;;;;;0.60;0.60;;;11.50;99.90;;;;;;5050957;28;20235;-62
2023/03/10 06:57:41;;;;;;;0.50;0.50;;;11.50;99.90;;;;;;5053167;28;20257;-64
2023/03/10 07:00:11;;;;;;;0.70;0.70;;;11.60;99.90;;;;;;5053028;28;20212;-62
2023/03/10 07:02:39;;;;;;;0.20;0.20;;;11.40;99.90;;;;;;5054359;28;20196;-63
2023/03/10 07:05:07;;;;;;;0.30;0.30;;;11.50;99.90;;;;;;5055253;28;20231;-61
2023/03/10 07:07:34;;;;;;;0.43;0.43;;;11.40;99.90;;;;;;5056441;28;20214;-61
2023/03/10 07:10:01;;;;;;;0.43;0.43;;;11.40;99.90;;;;;;5056107;28;20219;-61
2023/03/10 07:12:28;;;;;;;0.13;0.13;;;11.40;99.90;;;;;;5053326;28;20215;-62
2023/03/10 07:14:56;;;;;;;0.40;0.40;;;11.40;99.90;;;;;;5055054;28;20255;-63
2023/03/10 07:17:23;;;;;;;0.70;0.70;;;11.40;99.90;;;;;;5059337;28;20291;-62
2023/03/10 07:19:51;;;;;;;0.90;0.90;;;11.40;99.90;;;;;;5055722;28;20235;-63
2023/03/10 07:22:18;;;;;;;0.60;0.60;;;11.30;99.90;;;;;;5070870;28;20216;-62
2023/03/10 07:24:45;;;;;;;0.63;0.63;;;11.20;99.90;;;;;;5062929;28;20749;-62
2023/03/10 07:27:11;;;;;;;0.43;0.43;;;11.00;99.90;;;;;;5055133;28;20234;-63
2023/03/10 07:29:38;;;;;;;0.40;0.40;;;10.90;99.90;;;;;;5058589;28;20218;-64
2023/03/10 07:32:05;;;;;;;0.60;0.60;;;10.80;99.90;;;;;;5057429;28;20292;-62
2023/03/10 07:34:32;;;;;;;0.50;0.50;;;10.80;99.90;;;;;;5053972;28;20222;-63
2023/03/10 07:37:00;;;;;;;0.40;0.40;;;10.70;99.90;;;;;;5054772;28;20196;-63
2023/03/10 07:39:27;;;;;;;0.40;0.40;;;10.80;99.90;;;;;;5052357;28;20267;-61
2023/03/10 07:41:54;;;;;;;0.30;0.30;;;10.80;99.90;;;;;;5050980;28;20204;-63
2023/03/10 07:44:21;;;;;;;0.60;0.60;;;10.80;99.90;;;;;;5052580;28;20227;-63
2023/03/10 07:46:48;;;;;;;0.53;0.53;;;10.90;99.90;;;;;;5052352;28;20261;-62
2023/03/10 07:49:15;;;;;;;0.63;0.63;;;11.00;99.90;;;;;;5053347;28;20238;-64
2023/03/10 07:51:41;;;;;;;0.60;0.60;;;11.20;99.90;;;;;;5053029;28;20207;-65
2023/03/10 07:54:11;;;;;;;0.70;0.70;;;11.30;99.90;;;;;;5052939;28;20288;-61
2023/03/10 07:56:44;;;;;;;1.03;0.80;;;11.50;99.90;;;;;;5052972;28;20587;-62
2023/03/10 07:59:14;;;;;;;0.87;0.87;;;11.70;99.90;;;;;;5052771;28;20211;-61
2023/03/10 08:01:41;;;;;;;0.80;0.80;;;11.80;99.90;;;;;;5052836;28;20360;-63
2023/03/10 08:04:08;;;;;;;0.80;0.80;;;11.80;99.90;;;;;;5051605;28;20235;-62
2023/03/10 08:06:38;;;;;;;0.40;0.40;;;11.90;99.90;;;;;;5053345;28;20230;-66
2023/03/10 08:09:15;;;;;;;0.50;0.50;;;11.90;99.90;;;;;;5057654;28;20200;-63
2023/03/10 08:12:03;;;;;;;0.60;0.60;;;11.90;99.90;;;;;;5057265;28;20298;-62
2023/03/10 08:14:34;;;;;;;0.73;0.68;;;11.90;99.90;;;;;;5054141;28;20242;-62
2023/03/10 08:17:03;;;;;;;1.07;0.57;;;11.80;99.90;;;;;;5053482;28;20188;-63
2023/03/10 08:19:30;;;;;;;0.70;0.70;;;11.70;99.90;;;;;;5052694;28;20369;-64
2023/03/10 08:21:58;;;;;;;0.50;0.50;;;11.70;99.90;;;;;;5052156;28;20203;-66
2023/03/10 08:24:38;;;;;;;0.60;0.60;;;11.70;99.90;;;;;;5051654;28;20243;-63
2023/03/10 08:27:05;;;;;;;0.47;0.47;;;11.60;99.90;;;;;;5052439;28;20222;-64
2023/03/10 08:29:33;;;;;;;0.80;0.80;;;11.60;99.90;;;;;;5052736;28;20208;-63
2023/03/10 08:32:01;;;;;;;0.77;0.77;;;11.60;99.90;;;;;;5052168;28;20211;-63
2023/03/10 08:34:35;;;;;;;0.63;0.63;;;11.60;99.90;;;;;;5051746;28;20277;-64
2023/03/10 08:37:09;;;;;;;0.70;0.70;;;11.50;99.90;;;;;;5052369;28;20204;-62
2023/03/10 08:39:40;;;;;;;0.70;0.70;;;11.50;99.90;;;;;;5051962;28;20235;-63
2023/03/10 08:42:12;;;;;;;0.70;0.70;;;11.50;99.90;;;;;;5051198;28;20299;-62
2023/03/10 08:44:46;;;;;;;0.80;0.80;;;11.50;99.90;;;;;;5051663;28;20224;-64
2023/03/10 08:47:22;;;;;;;4.90;4.60;;;11.50;99.90;;;;;;5051683;28;20279;-62
2023/03/10 08:49:51;;;;;;;1.80;1.70;;;11.50;99.90;;;;;;5052164;28;20214;-63
2023/03/10 08:52:21;;;;;;;1.13;1.13;;;11.50;99.90;;;;;;5051417;28;20240;-62
2023/03/10 08:54:50;;;;;;;1.03;0.90;;;11.50;99.90;;;;;;5050790;28;20228;-63
2023/03/10 08:57:18;;;;;;;1.07;1.07;;;11.60;99.90;;;;;;5051617;28;20287;-64
2023/03/10 08:59:47;;;;;;;1.70;1.60;;;11.60;99.90;;;;;;5051612;28;20255;-62
2023/03/10 09:02:24;;;;;;;1.10;1.10;;;11.60;99.90;;;;;;5053103;28;20211;-63
2023/03/10 09:04:52;;;;;;;0.80;0.80;;;11.60;99.90;;;;;;5055437;28;20338;-62
2023/03/10 09:07:22;;;;;;;0.80;0.80;;;11.60;99.90;;;;;;5051873;28;20203;-62
2023/03/10 09:09:53;;;;;;;0.93;0.93;;;11.60;99.90;;;;;;5050806;28;20222;-64
2023/03/10 09:12:20;;;;;;;0.90;0.90;;;11.70;99.90;;;;;;5051861;28;20247;-62
2023/03/10 09:14:47;;;;;;;0.70;0.70;;;11.70;99.90;;;;;;5051018;28;20220;-63
2023/03/10 09:17:14;;;;;;;0.70;0.70;;;11.70;99.90;;;;;;5049535;28;20207;-62
2023/03/10 09:19:41;;;;;;;0.73;0.73;;;11.70;99.90;;;;;;5051766;28;20200;-63
2023/03/10 09:22:08;;;;;;;0.80;0.80;;;11.60;99.90;;;;;;5050930;28;20200;-63
2023/03/10 09:24:35;;;;;;;0.60;0.60;;;11.60;99.90;;;;;;5050916;28;20305;-63
2023/03/10 09:27:03;;;;;;;1.10;1.00;;;11.60;99.90;;;;;;5047246;28;20231;-61
2023/03/10 09:29:33;;;;;;;0.87;0.87;;;11.60;99.90;;;;;;5021163;28;20223;-62
2023/03/10 09:32:00;;;;;;;0.70;0.70;;;11.60;99.90;;;;;;5049366;28;20219;-62
2023/03/10 09:34:28;;;;;;;0.80;0.80;;;11.60;99.90;;;;;;5049361;28;20609;-64
2023/03/10 09:36:55;;;;;;;0.87;0.77;;;11.60;99.90;;;;;;5052139;28;20284;-63
2023/03/10 09:39:22;;;;;;;0.90;0.90;;;11.50;99.90;;;;;;5054858;28;20193;-62
2023/03/10 09:42:08;;;;;;;0.80;0.80;;;11.50;99.90;;;;;;5054754;28;20208;-64
2023/03/10 09:44:41;;;;;;;0.90;0.90;;;11.60;99.90;;;;;;5055160;28;20228;-62
2023/03/10 09:47:26;;;;;;;0.80;0.80;;;11.50;99.90;;;;;;5052415;28;20237;-62
2023/03/10 09:50:10;;;;;;;1.20;1.10;;;11.50;99.90;;;;;;5052631;28;20239;-63
2023/03/10 09:52:44;;;;;;;1.00;1.00;;;11.50;99.90;;;;;;5052825;28;20199;-63
2023/03/10 09:55:19;;;;;;;1.07;1.00;;;11.60;99.90;;;;;;5056534;28;20227;-63
2023/03/10 09:57:50;;;;;;;1.03;1.03;;;11.50;99.90;;;;;;5051020;28;20268;-62
2023/03/10 10:00:22;;;;;;;0.90;0.90;;;11.60;99.90;;;;;;5050476;28;20297;-62
2023/03/10 10:02:56;;;;;;;1.07;0.97;;;11.60;99.90;;;;;;5050288;28;20971;-63
2023/03/10 10:05:26;;;;;;;0.90;0.90;;;11.50;99.90;;;;;;5049883;28;20664;-63
2023/03/10 10:07:56;;;;;;;1.23;1.13;;;11.40;99.90;;;;;;5050696;28;20295;-62
2023/03/10 10:10:27;;;;;;;1.00;1.00;;;11.50;99.90;;;;;;5050193;28;20639;-64
2023/03/10 10:13:00;;;;;;;1.23;1.13;;;11.50;99.90;;;;;;5049804;28;20730;-63
2023/03/10 10:15:30;;;;;;;1.00;1.00;;;11.50;99.90;;;;;;5050922;28;20314;-62
2023/03/10 10:18:06;;;;;;;1.30;1.20;;;11.50;99.90;;;;;;5051535;28;20192;-62
2023/03/10 10:20:38;;;;;;;1.03;1.03;;;11.50;99.90;;;;;;5051116;28;20299;-64
2023/03/10 10:23:13;;;;;;;1.10;1.00;;;11.60;99.90;;;;;;5050603;28;20196;-63
2023/03/10 10:25:40;;;;;;;1.03;1.03;;;11.60;99.90;;;;;;5050953;28;20269;-63
2023/03/10 10:28:19;;;;;;;0.83;0.83;;;11.50;99.90;;;;;;5055109;28;20188;-64
2023/03/10 10:30:46;;;;;;;1.87;1.30;;;11.60;99.90;;;;;;5055488;28;20190;-62
2023/03/10 10:33:14;;;;;;;1.00;0.90;;;11.60;99.90;;;;;;5055272;28;20251;-63
2023/03/10 10:35:44;;;;;;;0.77;0.77;;;11.60;99.90;;;;;;5054588;28;20250;-63
2023/03/10 10:38:27;;;;;;;1.10;1.10;;;11.60;99.90;;;;;;5055054;28;20250;-61
2023/03/10 10:41:01;;;;;;;0.97;0.97;;;11.60;99.90;;;;;;5054310;28;20208;-62
2023/03/10 10:43:29;;;;;;;0.70;0.70;;;11.60;99.90;;;;;;5054348;28;20192;-62
2023/03/10 10:45:58;;;;;;;0.80;0.80;;;11.50;99.90;;;;;;5052905;28;20228;-64
2023/03/10 10:48:36;;;;;;;1.20;1.10;;;11.60;99.90;;;;;;5052765;28;20231;-63
2023/03/10 10:51:04;;;;;;;1.20;1.10;;;11.60;99.90;;;;;;5053576;28;20218;-64
2023/03/10 10:53:33;;;;;;;0.90;0.90;;;11.50;99.90;;;;;;5054230;28;20224;-63
2023/03/10 10:56:03;;;;;;;0.90;0.90;;;11.50;99.90;;;;;;5052500;28;20207;-62
2023/03/10 10:58:33;;;;;;;1.13;0.97;;;11.40;99.90;;;;;;5054607;28;20299;-62
2023/03/10 11:01:02;;;;;;;0.77;0.77;;;11.40;99.90;;;;;;5054127;28;20196;-64
2023/03/10 11:03:32;;;;;;;0.90;0.90;;;11.50;99.90;;;;;;5052558;28;20299;-63
2023/03/10 11:05:59;;;;;;;1.30;1.20;;;11.40;99.90;;;;;;5057404;28;20295;-61
2023/03/10 11:08:33;;;;;;;0.90;0.90;;;11.40;99.90;;;;;;5059501;28;20204;-62
2023/03/10 11:11:05;;;;;;;0.77;0.77;;;11.40;99.90;;;;;;5057804;28;20222;-63
2023/03/10 11:13:39;;;;;;;1.13;0.80;;;11.50;99.90;;;;;;5058199;28;20330;-63
2023/03/10 11:16:15;;;;;;;1.00;1.00;;;11.40;99.90;;;;;;5053729;28;20268;-62
2023/03/10 11:18:47;;;;;;;1.00;1.00;;;11.40;99.90;;;;;;5057497;28;20271;-64
2023/03/10 11:21:18;;;;;;;0.80;0.80;;;11.30;99.90;;;;;;5056487;28;20717;-63
2023/03/10 11:23:58;;;;;;;0.87;0.87;;;11.40;99.90;;;;;;5056323;28;20243;-64
2023/03/10 11:26:36;;;;;;;0.70;0.70;;;11.30;99.90;;;;;;5057127;28;20303;-64
2023/03/10 11:29:17;;;;;;;0.83;0.83;;;11.30;99.90;;;;;;5068257;28;20212;-63
2023/03/10 11:31:53;;;;;;;0.60;0.60;;;11.40;99.90;;;;;;5072666;28;20215;-64
2023/03/10 11:34:29;;;;;;;0.93;0.90;;;11.40;99.90;;;;;;5066146;28;20228;-63
2023/03/10 11:37:02;;;;;;;0.63;0.63;;;11.40;99.90;;;;;;5068951;28;20188;-63
2023/03/10 11:39:40;;;;;;;0.70;0.70;;;11.40;99.90;;;;;;5053687;28;20196;-63
2023/03/10 11:42:16;;;;;;;0.83;0.83;;;11.40;99.90;;;;;;5055463;28;20828;-62
2023/03/10 11:44:50;;;;;;;0.60;0.60;;;11.40;99.90;;;;;;5055678;28;20311;-63
2023/03/10 11:47:24;;;;;;;0.60;0.40;;;11.40;99.90;;;;;;5052327;28;20219;-60
2023/03/10 11:49:59;;;;;;;0.80;0.80;;;11.40;99.90;;;;;;5053024;28;20208;-64
2023/03/10 11:52:28;;;;;;;0.73;0.73;;;11.40;99.90;;;;;;5052556;28;20206;-63
2023/03/10 11:55:03;;;;;;;0.70;0.70;;;11.40;99.90;;;;;;5054887;28;20220;-63
2023/03/10 11:57:35;;;;;;;0.53;0.53;;;11.40;99.90;;;;;;5052263;28;20249;-61
2023/03/10 12:00:09;;;;;;;0.40;0.40;;;11.40;99.90;;;;;;5055125;28;20214;-62
2023/03/10 12:02:46;;;;;;;0.93;0.80;;;11.40;99.90;;;;;;5055426;28;20254;-61
2023/03/10 12:05:19;;;;;;;0.90;0.90;;;11.40;99.90;;;;;;5052296;28;20258;-61
2023/03/10 12:07:50;;;;;;;0.60;0.60;;;11.30;99.90;;;;;;5053316;28;20290;-62
2023/03/10 12:10:20;;;;;;;0.53;0.53;;;11.30;99.90;;;;;;5052939;28;20278;-61
2023/03/10 12:12:49;;;;;;;0.50;0.50;;;11.40;99.90;;;;;;5052552;28;20216;-62
2023/03/10 12:15:19;;;;;;;0.50;0.50;;;11.40;99.90;;;;;;5051893;28;20236;-63
2023/03/10 12:17:48;;;;;;;0.70;0.70;;;11.40;99.90;;;;;;5052447;28;20210;-62
2023/03/10 12:20:27;;;;;;;0.40;0.40;;;11.30;99.90;;;;;;5051870;28;20220;-62
2023/03/10 12:22:55;;;;;;;0.70;0.70;;;11.30;99.90;;;;;;5052197;28;20200;-61
2023/03/10 12:25:47;;;;;;;0.33;0.33;;;11.30;99.90;;;;;;5051637;28;20242;-61
2023/03/10 12:28:23;;;;;;;0.50;0.50;;;11.30;99.90;;;;;;5052033;28;20533;-62
2023/03/10 12:30:55;;;;;;;0.47;0.47;;;11.20;99.90;;;;;;5052645;28;20199;-62
2023/03/10 12:34:12;;;;;;;0.43;0.43;;;11.20;99.90;;;;;;5051956;28;20212;-62
2023/03/10 12:36:42;;;;;;;0.40;0.40;;;11.20;99.90;;;;;;5040188;28;20200;-63
2023/03/10 12:39:36;;;;;;;0.40;0.40;;;11.20;99.90;;;;;;5060213;28;20210;-63
2023/03/10 12:42:05;;;;;;;0.27;0.27;;;11.20;99.90;;;;;;5052532;28;20207;-61
2023/03/10 12:44:54;;;;;;;0.23;0.23;;;11.20;99.90;;;;;;5049929;28;20231;-60
2023/03/10 12:47:36;;;;;;;0.27;0.27;;;11.20;99.90;;;;;;5053436;28;20196;-61
2023/03/10 12:50:21;;;;;;;0.30;0.30;;;11.20;99.90;;;;;;5051221;28;20242;-61
2023/03/10 12:52:54;;;;;;;0.20;0.20;;;11.20;99.90;;;;;;5053527;28;20649;-60
2023/03/10 12:55:23;;;;;;;0.20;0.20;;;11.10;99.90;;;;;;5031566;28;20231;-62
2023/03/10 12:58:09;;;;;;;0.20;0.20;;;11.20;99.90;;;;;;5032571;28;20309;-63
2023/03/10 13:00:43;;;;;;;0.30;0.30;;;11.20;99.90;;;;;;5031786;28;20585;-62